Aeroporto :
LOGIN :

Iscrizione | Disclaimer

   EN    FR    IT 

 










Sommario :    VFR   VFR Marginale   IFR   IFR Intensivo   IFR Molto Intensivo
Visibilità : 
Base nubi : 
>= 8 km
>= 3000ft
5 / 8 km
1000 / 3000 ft
1500m / 5 km
500 / 1000 ft
800 / 1500m
200 / 500 ft
< 800m
< 200 ft
Simboli :   Temporali  Nebbia  Neve Forte  Precipitazioni Forti  Vento > 20 kt
SIGMETs :   Varie  Temporali  Ghiacco  Turbolenza  Onda orograficha  Ceneri Vulcaniche






- Altitudine del aeroporto : 1548 ft


LKNA - Náměšť Air Base

ULTIMO METAR :
  • 111300Z 33006KT 310V010 9999 -RA BKN007 OVC013 14/13 Q1022 NOSIG RMK GRN GRN

METARs OBSOLETI :
  • 111230Z 32008KT 9999 -RA BKN006 OVC033 14/13 Q1022 NOSIG RMK YLO YLO
  • 111200Z 31007KT 7000 -RA SCT006 OVC060 13/12 Q1022 NOSIG RMK WHT WHT
  • 111130Z 32007KT 6000 -RA FEW008 SCT047 OVC060 13/12 Q1021 NOSIG RMK WHT WHT
  • 111100Z 32008KT 7000 -RA FEW006 OVC060 13/12 Q1021 NOSIG RMK WHT WHT
  • 111030Z 33009KT 8000 -RA FEW005 OVC060 13/12 Q1021 NOSIG RMK BLU BLU

TAF TAF LKNA
Valido dal 11 a 12 ore il 12 a 12 ore UTC


111100Z 1112/1212 33010KT 8000 RA FEW005 OVC040
PROB30
TEMPO 1112/1116 4000 RA SCT005 BKN012 OVC025
BECMG 1118/1120 9999 NSW SCT035
BECMG 1120/1122 CAVOK
BECMG 1207/1209 9999 SCT030



MetMap, La meteo Aeronautica in un colpo d'occhio ! - Copyright ORBIFLY Dicembre 2007 - Disclaimer

ORBIFLY MET'MAP TEAM :

Programmazione e sviluppo : Alexandra Zaïnal
Concezione : Baudouin d'Aumeries
Aiuto per la programmazione : Marc-Olivier Méhu
Supporto tecnico e logistico : Manuel Goepfert
Aiuto per la traduzione : Arnaldo La Scala

Contatto : metmap@orbifly.com




FONTI E CREDITI :

   NOAA